Time;durP1;ratioP1;P1;durP2;ratioP2;P2;SDS_P1;SDS_P2;PMS_P1;PMS_P2;Temp;Humidity;BMP_temperature;BMP_pressure;BME280_temperature;BME280_humidity;BME280_pressure;Samples;Min_cycle;Max_cycle;Signal;HPM_P1;HPM_P2
2022/08/06 00:01:00;;;;;;;3.07;1.50;;;24.20;40.00;;;;;;5031273;28;20624;-42
2022/08/06 00:03:26;;;;;;;2.60;1.33;;;24.20;40.10;;;;;;5031424;28;20170;-44
2022/08/06 00:05:52;;;;;;;3.27;2.10;;;24.10;40.30;;;;;;5032490;28;20174;-43
2022/08/06 00:08:18;;;;;;;2.30;1.40;;;24.10;40.30;;;;;;5034928;28;20420;-43
2022/08/06 00:10:44;;;;;;;3.83;1.87;;;24.20;40.10;;;;;;5034775;28;20440;-42
2022/08/06 00:13:11;;;;;;;3.53;1.60;;;24.10;40.40;;;;;;5034929;28;20181;-41
2022/08/06 00:15:36;;;;;;;5.27;2.00;;;24.10;40.20;;;;;;5034517;28;21130;-43
2022/08/06 00:18:02;;;;;;;4.13;1.70;;;24.10;40.50;;;;;;5034921;28;20507;-44
2022/08/06 00:20:28;;;;;;;3.20;1.90;;;24.00;40.70;;;;;;5034918;28;20412;-43
2022/08/06 00:22:54;;;;;;;2.57;1.80;;;24.10;41.20;;;;;;5034618;28;20772;-44
2022/08/06 00:25:20;;;;;;;3.77;2.17;;;24.10;41.60;;;;;;5034586;28;20178;-42
2022/08/06 00:27:46;;;;;;;2.43;1.70;;;24.00;41.20;;;;;;5034696;28;20186;-43
2022/08/06 00:30:12;;;;;;;2.60;1.80;;;24.00;41.50;;;;;;5034342;28;20417;-42
2022/08/06 00:32:38;;;;;;;3.33;1.93;;;24.00;42.10;;;;;;5034363;28;20218;-44
2022/08/06 00:35:04;;;;;;;2.63;1.73;;;24.00;41.90;;;;;;5034649;28;20209;-44
2022/08/06 00:37:32;;;;;;;5.33;1.97;;;23.90;42.50;;;;;;5034010;28;20463;-43
2022/08/06 00:40:01;;;;;;;3.00;2.00;;;23.90;42.20;;;;;;5034356;28;20423;-43
2022/08/06 00:42:27;;;;;;;3.00;2.00;;;23.90;42.60;;;;;;5034478;28;20431;-43
2022/08/06 00:44:53;;;;;;;4.10;2.20;;;23.80;42.60;;;;;;5034236;28;20440;-43
2022/08/06 00:47:19;;;;;;;3.53;2.20;;;23.80;43.30;;;;;;5034165;28;20879;-43
2022/08/06 00:49:45;;;;;;;3.10;2.20;;;23.80;42.50;;;;;;5034117;28;20844;-43
2022/08/06 00:52:11;;;;;;;2.60;1.70;;;23.80;43.00;;;;;;5034073;28;20429;-43
2022/08/06 00:54:37;;;;;;;3.37;2.03;;;23.80;43.10;;;;;;5033980;28;20196;-42
2022/08/06 00:57:04;;;;;;;3.27;1.50;;;23.80;42.90;;;;;;5033952;28;20205;-43
2022/08/06 00:59:30;;;;;;;3.40;1.93;;;23.70;43.00;;;;;;5033871;28;20584;-43
2022/08/06 01:01:56;;;;;;;4.23;1.93;;;23.70;43.40;;;;;;5033879;28;20470;-43
2022/08/06 01:04:21;;;;;;;3.70;2.13;;;23.70;43.50;;;;;;5033841;28;20170;-43
2022/08/06 01:06:47;;;;;;;3.13;2.00;;;23.70;43.70;;;;;;5033641;28;20184;-43
2022/08/06 01:09:13;;;;;;;5.30;2.07;;;23.70;43.70;;;;;;5034082;28;20201;-44
2022/08/06 01:11:39;;;;;;;3.10;2.00;;;23.70;43.90;;;;;;5033681;28;20281;-43
2022/08/06 01:14:06;;;;;;;3.70;2.10;;;23.70;44.10;;;;;;5033504;28;20178;-44
2022/08/06 01:16:46;;;;;;;6.00;2.77;;;23.60;44.00;;;;;;5033147;28;20499;-43
2022/08/06 01:19:45;;;;;;;3.23;2.20;;;23.60;44.00;;;;;;5033650;28;20799;-43
2022/08/06 01:22:33;;;;;;;3.90;2.20;;;23.60;43.90;;;;;;5033365;28;20823;-42
2022/08/06 01:25:09;;;;;;;3.57;2.23;;;23.50;44.20;;;;;;5033465;28;20792;-42
2022/08/06 01:27:58;;;;;;;3.40;2.00;;;23.50;44.50;;;;;;5033285;28;20501;-43
2022/08/06 01:30:30;;;;;;;2.87;1.53;;;23.60;44.40;;;;;;5033143;28;20917;-43
2022/08/06 01:33:19;;;;;;;3.17;2.10;;;23.50;44.30;;;;;;5033600;28;20911;-44
2022/08/06 01:35:52;;;;;;;2.63;1.77;;;23.60;44.30;;;;;;5033043;28;20413;-43
2022/08/06 01:38:23;;;;;;;3.83;2.17;;;23.60;44.40;;;;;;5033172;28;20994;-43
2022/08/06 01:40:50;;;;;;;2.67;1.83;;;23.60;44.70;;;;;;5033151;28;20444;-44
2022/08/06 01:43:19;;;;;;;2.90;2.20;;;23.60;44.70;;;;;;5033029;28;20848;-43
2022/08/06 01:45:46;;;;;;;4.97;2.50;;;23.50;44.30;;;;;;5032786;28;20413;-43
2022/08/06 01:48:21;;;;;;;3.30;2.23;;;23.50;44.50;;;;;;5033015;28;20459;-43
2022/08/06 01:50:50;;;;;;;3.60;2.27;;;23.50;44.80;;;;;;5032913;28;20463;-44
2022/08/06 01:53:28;;;;;;;3.23;1.67;;;23.50;45.00;;;;;;5033012;28;20490;-42
2022/08/06 01:55:58;;;;;;;3.13;2.30;;;23.50;44.80;;;;;;5032903;28;20397;-43
2022/08/06 01:58:38;;;;;;;5.60;1.87;;;23.50;44.50;;;;;;5033186;28;20401;-44
2022/08/06 02:01:08;;;;;;;3.90;2.00;;;23.50;44.80;;;;;;5033067;28;20466;-43
2022/08/06 02:03:47;;;;;;;3.27;1.80;;;23.50;44.80;;;;;;5032773;28;20401;-43
2022/08/06 02:06:18;;;;;;;4.50;2.60;;;23.50;45.20;;;;;;5032384;28;20396;-43
2022/08/06 02:08:47;;;;;;;3.53;2.50;;;23.50;44.60;;;;;;5032671;28;20401;-43
2022/08/06 02:11:13;;;;;;;4.20;2.33;;;23.50;44.80;;;;;;5032578;28;20431;-43
2022/08/06 02:13:41;;;;;;;3.47;2.47;;;23.50;44.80;;;;;;5032949;28;20763;-44
2022/08/06 02:16:10;;;;;;;4.20;2.57;;;23.50;44.60;;;;;;5032649;28;20400;-44
2022/08/06 02:18:40;;;;;;;3.50;2.03;;;23.40;44.30;;;;;;5032513;28;20420;-42
2022/08/06 02:21:15;;;;;;;3.90;1.73;;;23.40;44.70;;;;;;5032345;28;20435;-42
2022/08/06 02:23:42;;;;;;;3.00;2.27;;;23.40;44.50;;;;;;5032873;28;20480;-44
2022/08/06 02:26:10;;;;;;;3.33;2.70;;;23.40;44.50;;;;;;5032165;28;20427;-42
2022/08/06 02:28:38;;;;;;;4.53;2.90;;;23.30;44.50;;;;;;5031816;28;20405;-42
2022/08/06 02:31:04;;;;;;;4.53;2.33;;;23.40;44.30;;;;;;5031879;28;20451;-44
2022/08/06 02:33:30;;;;;;;2.53;1.63;;;23.30;44.30;;;;;;5032596;28;20475;-44
2022/08/06 02:36:13;;;;;;;5.47;2.53;;;23.30;44.20;;;;;;5032135;28;20413;-43
2022/08/06 02:38:51;;;;;;;3.47;2.30;;;23.30;43.90;;;;;;5032429;28;20421;-42
2022/08/06 02:41:23;;;;;;;3.57;2.30;;;23.20;44.00;;;;;;5032352;28;20424;-44
2022/08/06 02:43:56;;;;;;;2.83;1.70;;;23.20;43.90;;;;;;5032335;28;20416;-43
2022/08/06 02:46:36;;;;;;;2.83;2.03;;;23.10;43.60;;;;;;5032192;28;20959;-44
2022/08/06 02:49:10;;;;;;;3.40;2.20;;;23.00;43.30;;;;;;5032244;28;20931;-44
2022/08/06 02:51:44;;;;;;;3.03;1.93;;;22.90;43.80;;;;;;5032408;28;20486;-43
2022/08/06 02:54:25;;;;;;;2.50;1.50;;;22.80;43.50;;;;;;5032118;28;20744;-44
2022/08/06 02:56:58;;;;;;;3.23;2.30;;;22.80;43.60;;;;;;5031980;28;20456;-42
2022/08/06 02:59:28;;;;;;;3.70;1.73;;;22.80;43.50;;;;;;5032345;28;20804;-43
2022/08/06 03:02:01;;;;;;;3.00;1.87;;;22.80;43.60;;;;;;5032317;28;20425;-43
2022/08/06 03:04:29;;;;;;;4.03;1.90;;;22.80;43.30;;;;;;5032218;28;20955;-42
2022/08/06 03:06:58;;;;;;;4.00;2.70;;;22.80;43.10;;;;;;5031711;28;20981;-43
2022/08/06 03:09:24;;;;;;;2.57;1.87;;;22.70;42.30;;;;;;5031986;28;20405;-43
2022/08/06 03:11:52;;;;;;;2.70;1.67;;;22.70;42.70;;;;;;5032154;28;20451;-43
2022/08/06 03:14:19;;;;;;;4.03;2.00;;;22.60;43.50;;;;;;5031858;28;20762;-43
2022/08/06 03:16:47;;;;;;;2.87;1.73;;;22.50;42.60;;;;;;5031712;28;20456;-44
2022/08/06 03:19:13;;;;;;;2.30;1.33;;;22.50;42.40;;;;;;5031961;28;20409;-44
2022/08/06 03:21:42;;;;;;;3.50;1.60;;;22.50;42.30;;;;;;5032013;28;20460;-43
2022/08/06 03:24:09;;;;;;;2.57;1.30;;;22.40;42.10;;;;;;5032067;28;20405;-44
2022/08/06 03:26:36;;;;;;;2.40;1.70;;;22.40;42.50;;;;;;5032201;28;20435;-43
2022/08/06 03:29:04;;;;;;;2.53;1.37;;;22.40;42.40;;;;;;5032450;28;20412;-43
2022/08/06 03:31:31;;;;;;;3.00;1.77;;;22.40;42.60;;;;;;5031986;28;20452;-43
2022/08/06 03:33:58;;;;;;;4.07;2.30;;;22.40;42.70;;;;;;5032031;28;20415;-43
2022/08/06 03:36:26;;;;;;;2.83;1.47;;;22.40;42.80;;;;;;5031853;28;20461;-42
2022/08/06 03:38:58;;;;;;;4.70;2.00;;;22.40;42.80;;;;;;5032136;28;20435;-43
2022/08/06 03:41:25;;;;;;;2.70;1.33;;;22.40;42.50;;;;;;5034322;28;20474;-43
2022/08/06 03:43:51;;;;;;;2.83;1.67;;;22.40;42.30;;;;;;5035935;28;20488;-43
2022/08/06 03:46:42;;;;;;;3.80;1.73;;;22.40;42.20;;;;;;5035210;28;20412;-43
2022/08/06 03:49:14;;;;;;;2.60;1.30;;;22.30;42.20;;;;;;5035425;28;20906;-43
2022/08/06 03:51:42;;;;;;;3.17;1.33;;;22.30;42.30;;;;;;5035261;28;20424;-43
2022/08/06 03:54:09;;;;;;;2.90;1.60;;;22.30;42.30;;;;;;5035379;28;20404;-43
2022/08/06 03:56:40;;;;;;;3.00;1.60;;;22.30;41.90;;;;;;5034902;28;20456;-43
2022/08/06 03:59:07;;;;;;;2.90;1.37;;;22.20;41.20;;;;;;5035305;28;20444;-43
2022/08/06 04:01:36;;;;;;;2.50;1.70;;;22.10;40.50;;;;;;5035263;28;20466;-43
2022/08/06 04:04:03;;;;;;;3.03;1.43;;;22.10;41.00;;;;;;5035038;28;20397;-43
2022/08/06 04:06:30;;;;;;;4.63;1.50;;;22.00;40.70;;;;;;5034725;28;20769;-43
2022/08/06 04:08:59;;;;;;;3.10;1.13;;;22.00;40.80;;;;;;5034957;28;20412;-43
2022/08/06 04:11:25;;;;;;;2.23;1.13;;;21.90;41.00;;;;;;5035155;28;20498;-42
2022/08/06 04:13:52;;;;;;;2.17;1.20;;;21.90;41.20;;;;;;5034887;28;20422;-43
2022/08/06 04:16:18;;;;;;;3.33;1.50;;;21.90;41.00;;;;;;5034720;28;20745;-43
2022/08/06 04:18:45;;;;;;;2.10;1.30;;;21.90;40.80;;;;;;5034838;28;20416;-43
2022/08/06 04:21:18;;;;;;;3.30;1.40;;;21.80;40.60;;;;;;5034774;28;20440;-43
2022/08/06 04:23:44;;;;;;;2.80;1.10;;;21.80;40.30;;;;;;5035009;28;20401;-43
2022/08/06 04:26:13;;;;;;;1.90;1.13;;;21.70;40.20;;;;;;5034688;28;20815;-43
2022/08/06 04:28:42;;;;;;;2.40;1.00;;;21.70;40.10;;;;;;5034562;28;20412;-42
2022/08/06 04:31:09;;;;;;;2.20;1.03;;;21.60;40.10;;;;;;5034466;28;20808;-43
2022/08/06 04:33:37;;;;;;;3.30;1.27;;;21.60;40.40;;;;;;5034453;28;20443;-43
2022/08/06 04:36:05;;;;;;;3.03;1.17;;;21.60;40.60;;;;;;5034203;28;20496;-43
2022/08/06 04:38:32;;;;;;;6.33;1.20;;;21.60;40.70;;;;;;5034619;28;20471;-43
2022/08/06 04:40:59;;;;;;;2.20;1.23;;;21.60;40.20;;;;;;5034260;28;20421;-42
2022/08/06 04:43:26;;;;;;;1.73;0.83;;;21.60;40.10;;;;;;5034289;28;20401;-43
2022/08/06 04:45:53;;;;;;;2.03;1.00;;;21.60;40.20;;;;;;5033981;28;20405;-43
2022/08/06 04:48:19;;;;;;;1.90;1.10;;;21.60;39.80;;;;;;5034198;28;20409;-43
2022/08/06 04:50:46;;;;;;;1.90;1.03;;;21.60;39.70;;;;;;5034241;28;20420;-43
2022/08/06 04:53:14;;;;;;;3.30;1.60;;;21.50;39.80;;;;;;5033369;28;20459;-42
2022/08/06 04:55:41;;;;;;;2.17;1.10;;;21.50;39.90;;;;;;5033862;28;20396;-43
2022/08/06 04:58:09;;;;;;;2.23;0.90;;;21.50;39.50;;;;;;5034032;28;20567;-43
2022/08/06 05:00:38;;;;;;;2.13;0.93;;;21.50;39.90;;;;;;5034100;28;20785;-43
2022/08/06 05:03:04;;;;;;;1.87;0.90;;;21.50;39.70;;;;;;5033855;28;20436;-43
2022/08/06 05:05:35;;;;;;;4.23;1.00;;;21.50;39.80;;;;;;5033923;28;20404;-43
2022/08/06 05:08:04;;;;;;;1.80;0.87;;;21.50;39.80;;;;;;5034034;28;20420;-43
2022/08/06 05:10:37;;;;;;;1.90;0.90;;;21.60;39.70;;;;;;5033581;28;20442;-43
2022/08/06 05:13:05;;;;;;;2.07;1.00;;;21.60;39.80;;;;;;5033825;28;20401;-43
2022/08/06 05:15:40;;;;;;;1.70;0.70;;;21.70;39.50;;;;;;5033444;28;20412;-42
2022/08/06 05:18:14;;;;;;;1.80;0.80;;;21.80;39.30;;;;;;5033593;28;20452;-42
2022/08/06 05:20:46;;;;;;;1.80;0.60;;;21.80;39.50;;;;;;5033813;28;20421;-43
2022/08/06 05:23:34;;;;;;;1.93;0.70;;;21.90;39.30;;;;;;5033823;28;20400;-43
2022/08/06 05:26:00;;;;;;;1.90;0.80;;;22.00;39.00;;;;;;5032533;28;20409;-43
2022/08/06 05:28:26;;;;;;;2.40;1.00;;;22.10;38.90;;;;;;5033642;28;20443;-43
2022/08/06 05:30:52;;;;;;;3.00;0.70;;;22.10;38.80;;;;;;5033288;28;20480;-43
2022/08/06 05:33:38;;;;;;;1.90;0.70;;;22.20;38.30;;;;;;5033291;28;20826;-43
2022/08/06 05:36:06;;;;;;;3.33;1.10;;;22.30;38.30;;;;;;5033406;28;20741;-43
2022/08/06 05:38:39;;;;;;;2.17;1.13;;;22.30;38.20;;;;;;5033404;28;20444;-42
2022/08/06 05:41:07;;;;;;;1.70;0.87;;;22.40;37.70;;;;;;5033112;28;20444;-41
2022/08/06 05:43:33;;;;;;;2.07;0.70;;;22.40;37.80;;;;;;5033139;28;20399;-43
2022/08/06 05:46:04;;;;;;;6.17;1.33;;;22.50;37.20;;;;;;5032856;28;20393;-42
2022/08/06 05:48:34;;;;;;;1.90;0.70;;;22.50;37.30;;;;;;5033067;28;20459;-43
2022/08/06 05:51:06;;;;;;;1.90;0.70;;;22.50;37.20;;;;;;5033474;28;20423;-43
2022/08/06 05:53:41;;;;;;;3.00;1.20;;;22.50;37.60;;;;;;5033172;28;20419;-42
2022/08/06 05:56:12;;;;;;;3.70;0.77;;;22.50;37.70;;;;;;5032883;28;20428;-42
2022/08/06 05:59:01;;;;;;;2.23;1.13;;;22.50;37.60;;;;;;5032902;28;20396;-43
2022/08/06 06:01:28;;;;;;;3.03;0.90;;;22.60;37.90;;;;;;5032675;28;20474;-42
2022/08/06 06:03:55;;;;;;;3.10;0.70;;;22.60;37.40;;;;;;5032423;28;20416;-43
2022/08/06 06:06:22;;;;;;;1.77;0.67;;;22.70;37.70;;;;;;5032506;28;20400;-43
2022/08/06 06:08:48;;;;;;;1.70;0.70;;;22.70;37.30;;;;;;5032861;28;20479;-43
2022/08/06 06:11:14;;;;;;;1.80;0.80;;;22.70;36.00;;;;;;5032874;28;20762;-42
2022/08/06 06:13:41;;;;;;;2.77;1.37;;;22.70;36.50;;;;;;5032537;28;20488;-42
2022/08/06 06:16:58;;;;;;;1.70;0.90;;;22.80;36.40;;;;;;5032512;28;20463;-43
2022/08/06 06:19:46;;;;;;;1.70;0.73;;;23.10;36.00;;;;;;4952204;29;20400;-42
2022/08/06 06:22:34;;;;;;;2.60;0.83;;;22.70;36.50;;;;;;5032645;28;20409;-43
2022/08/06 06:25:19;;;;;;;1.67;0.70;;;22.60;36.70;;;;;;5032608;28;20401;-43
2022/08/06 06:27:56;;;;;;;2.20;0.97;;;22.60;37.00;;;;;;5017026;28;20869;-43
2022/08/06 06:30:36;;;;;;;1.90;0.83;;;22.60;36.60;;;;;;5032387;28;20888;-43
2022/08/06 06:33:22;;;;;;;3.07;1.00;;;22.60;36.80;;;;;;5032391;28;20412;-42
2022/08/06 06:35:54;;;;;;;1.90;1.13;;;22.60;36.60;;;;;;5031984;28;20409;-42
2022/08/06 06:38:46;;;;;;;1.83;0.80;;;22.60;36.70;;;;;;5032152;28;20467;-43
2022/08/06 06:41:23;;;;;;;2.20;0.90;;;22.60;36.40;;;;;;5031993;28;20452;-43
2022/08/06 06:44:13;;;;;;;2.47;0.90;;;22.60;36.80;;;;;;5032386;28;20392;-43
2022/08/06 06:46:47;;;;;;;1.83;0.60;;;22.70;36.60;;;;;;5031849;28;20413;-42
2022/08/06 06:49:20;;;;;;;1.70;0.67;;;22.70;36.30;;;;;;5032384;28;20393;-43
2022/08/06 06:52:05;;;;;;;2.73;0.90;;;22.80;36.50;;;;;;5031978;28;20432;-43
2022/08/06 06:54:48;;;;;;;2.00;0.80;;;22.80;36.30;;;;;;5032051;28;20935;-43
2022/08/06 06:57:20;;;;;;;1.90;0.77;;;22.80;36.10;;;;;;5032330;28;20521;-42
2022/08/06 06:59:51;;;;;;;2.00;0.90;;;22.90;36.10;;;;;;5032422;28;20397;-42
2022/08/06 07:02:28;;;;;;;1.80;0.80;;;22.80;35.70;;;;;;5032366;28;20428;-42
2022/08/06 07:04:54;;;;;;;2.10;1.30;;;22.80;35.90;;;;;;5032938;28;20411;-43
2022/08/06 07:07:21;;;;;;;2.10;1.23;;;22.90;36.00;;;;;;5032012;28;20408;-42
2022/08/06 07:09:49;;;;;;;3.47;1.77;;;22.90;35.90;;;;;;5032202;28;20419;-43
2022/08/06 07:12:20;;;;;;;3.20;1.20;;;23.00;35.90;;;;;;5031617;28;20439;-42
2022/08/06 07:14:48;;;;;;;2.23;1.00;;;23.00;36.40;;;;;;5032134;28;20484;-43
2022/08/06 07:17:18;;;;;;;2.57;1.10;;;23.00;35.90;;;;;;5035334;28;20989;-42
2022/08/06 07:19:46;;;;;;;2.73;1.40;;;23.10;36.00;;;;;;5020045;28;20405;-43
2022/08/06 07:22:13;;;;;;;2.60;2.00;;;23.20;35.90;;;;;;5037998;28;20893;-42
2022/08/06 07:24:41;;;;;;;4.33;1.10;;;23.20;36.20;;;;;;5039060;28;20496;-42
2022/08/06 07:27:08;;;;;;;5.90;1.43;;;23.30;35.80;;;;;;5037228;28;20404;-42
2022/08/06 07:29:35;;;;;;;3.43;1.07;;;23.40;35.90;;;;;;5038065;28;20467;-42
2022/08/06 07:32:02;;;;;;;2.87;1.10;;;23.50;35.20;;;;;;5037604;28;20458;-42
2022/08/06 07:34:30;;;;;;;2.50;0.77;;;23.50;35.60;;;;;;5037768;28;20417;-42
2022/08/06 07:36:57;;;;;;;2.27;1.03;;;23.50;35.60;;;;;;5037806;28;20448;-42
2022/08/06 07:39:27;;;;;;;1.80;0.87;;;23.50;35.00;;;;;;5035992;28;20466;-43
2022/08/06 07:41:54;;;;;;;3.47;1.10;;;23.50;34.80;;;;;;5035877;28;20427;-42
2022/08/06 07:44:22;;;;;;;2.10;1.07;;;23.40;34.60;;;;;;5035405;28;20403;-43
2022/08/06 07:46:54;;;;;;;1.90;1.00;;;23.30;34.70;;;;;;5035443;28;20435;-42
2022/08/06 07:49:24;;;;;;;2.00;0.97;;;23.40;35.30;;;;;;5035558;28;20444;-43
2022/08/06 07:51:52;;;;;;;1.80;1.00;;;23.40;35.40;;;;;;5035361;28;20427;-43
2022/08/06 07:54:19;;;;;;;2.40;1.23;;;23.50;35.30;;;;;;5035226;28;20476;-43
2022/08/06 07:56:46;;;;;;;2.10;0.97;;;23.50;33.40;;;;;;5034912;28;20947;-43
2022/08/06 07:59:12;;;;;;;1.80;0.90;;;23.60;34.60;;;;;;5035256;28;20408;-43
2022/08/06 08:01:39;;;;;;;2.23;0.90;;;23.60;34.30;;;;;;5034991;28;20934;-43
2022/08/06 08:06:54;;;;;;;2.00;1.10;;;23.70;34.20;;;;;;5034976;28;20407;-43
2022/08/06 08:09:23;;;;;;;3.50;0.90;;;23.70;34.00;;;;;;5035177;28;20503;-43
2022/08/06 08:11:50;;;;;;;2.00;0.70;;;23.80;34.10;;;;;;5035052;28;20467;-43
2022/08/06 08:14:20;;;;;;;2.10;0.80;;;23.80;34.10;;;;;;5034882;28;20440;-43
2022/08/06 08:16:47;;;;;;;1.70;0.77;;;23.90;33.80;;;;;;5034374;28;21036;-42
2022/08/06 08:19:40;;;;;;;1.90;0.80;;;24.00;33.90;;;;;;5034567;28;20893;-42
2022/08/06 08:22:10;;;;;;;3.13;0.70;;;24.10;33.60;;;;;;5031447;28;20804;-43
2022/08/06 08:24:37;;;;;;;2.20;0.67;;;24.20;33.60;;;;;;5034615;28;20397;-43
2022/08/06 08:27:07;;;;;;;2.57;0.80;;;24.30;33.40;;;;;;5034437;28;20811;-43
2022/08/06 08:29:33;;;;;;;2.13;0.83;;;24.20;32.90;;;;;;5034559;28;20420;-43
2022/08/06 08:31:58;;;;;;;1.90;1.00;;;24.30;33.10;;;;;;5034394;28;20456;-43
2022/08/06 08:34:24;;;;;;;3.20;1.00;;;24.30;32.90;;;;;;5035136;28;20417;-43
2022/08/06 08:36:50;;;;;;;4.87;0.77;;;24.40;32.90;;;;;;5034852;28;20390;-43
2022/08/06 08:39:16;;;;;;;6.73;1.20;;;24.50;32.90;;;;;;5034728;28;20526;-42
2022/08/06 08:41:49;;;;;;;3.00;0.80;;;24.50;32.70;;;;;;5034374;28;20197;-42
2022/08/06 08:44:27;;;;;;;2.33;1.07;;;24.60;32.40;;;;;;5034643;28;20170;-44
2022/08/06 08:46:58;;;;;;;1.77;0.73;;;24.70;32.10;;;;;;5033958;28;20404;-43
2022/08/06 08:49:46;;;;;;;1.77;0.67;;;24.70;31.90;;;;;;5032679;28;20750;-42
2022/08/06 08:52:19;;;;;;;1.80;0.60;;;24.80;31.60;;;;;;5034314;28;20478;-41
2022/08/06 08:54:54;;;;;;;1.73;0.90;;;24.90;31.40;;;;;;5034343;28;20543;-43
2022/08/06 08:57:22;;;;;;;1.90;0.90;;;24.90;31.50;;;;;;5033700;28;20981;-43
2022/08/06 08:59:49;;;;;;;1.83;0.83;;;24.90;31.40;;;;;;5033461;28;20412;-43
2022/08/06 09:02:14;;;;;;;1.60;0.60;;;24.90;30.30;;;;;;5033821;28;20445;-42
2022/08/06 09:04:42;;;;;;;2.37;0.60;;;25.00;30.90;;;;;;5033936;28;20405;-42
2022/08/06 09:07:09;;;;;;;6.80;2.00;;;25.00;30.80;;;;;;5033548;28;20405;-44
2022/08/06 09:09:37;;;;;;;1.70;0.60;;;25.10;31.30;;;;;;5034024;28;20491;-44
2022/08/06 09:12:03;;;;;;;2.00;0.90;;;25.20;31.00;;;;;;5033656;28;20546;-44
2022/08/06 09:14:29;;;;;;;2.77;0.80;;;25.30;30.40;;;;;;5033838;28;20408;-44
2022/08/06 09:16:58;;;;;;;3.70;0.90;;;25.30;30.00;;;;;;5033576;28;20522;-45
2022/08/06 09:19:28;;;;;;;2.10;0.90;;;25.40;30.10;;;;;;5033764;28;20409;-43
2022/08/06 09:21:56;;;;;;;2.43;0.93;;;25.40;30.00;;;;;;5033815;28;20425;-42
2022/08/06 09:24:22;;;;;;;1.90;0.70;;;25.60;29.70;;;;;;5033480;28;20407;-45
2022/08/06 09:27:11;;;;;;;1.80;0.70;;;25.60;29.90;;;;;;5033458;28;20413;-43
2022/08/06 09:29:47;;;;;;;2.17;0.73;;;25.90;29.50;;;;;;5033905;28;20412;-42
2022/08/06 09:32:13;;;;;;;1.87;0.83;;;25.90;29.10;;;;;;5033859;28;20443;-43
2022/08/06 09:34:40;;;;;;;1.70;0.63;;;25.90;28.10;;;;;;5033233;28;20760;-43
2022/08/06 09:37:06;;;;;;;1.90;0.73;;;25.90;28.00;;;;;;5033249;28;20682;-44
2022/08/06 09:39:44;;;;;;;2.37;0.60;;;25.90;28.50;;;;;;5032653;28;20405;-42
2022/08/06 09:42:10;;;;;;;1.80;0.70;;;26.00;28.60;;;;;;5033305;28;20431;-43
2022/08/06 09:44:36;;;;;;;4.97;1.00;;;26.00;28.50;;;;;;5032970;28;20409;-43
2022/08/06 09:47:03;;;;;;;2.00;0.60;;;26.10;28.70;;;;;;5033016;28;20409;-41
2022/08/06 09:49:43;;;;;;;1.60;0.40;;;26.10;28.40;;;;;;5033080;28;20174;-42
2022/08/06 09:52:17;;;;;;;4.00;0.80;;;26.10;28.60;;;;;;5033088;28;20425;-42
2022/08/06 09:54:46;;;;;;;1.60;0.60;;;26.00;29.00;;;;;;5032874;28;20415;-42
2022/08/06 09:57:12;;;;;;;1.60;0.43;;;26.10;28.90;;;;;;5032416;28;20960;-44
2022/08/06 09:59:46;;;;;;;2.73;0.60;;;26.20;28.40;;;;;;5033036;28;20508;-42
2022/08/06 10:02:14;;;;;;;2.13;0.60;;;26.20;28.00;;;;;;5032905;28;20436;-42
2022/08/06 10:04:40;;;;;;;2.10;0.90;;;26.30;28.40;;;;;;5032732;28;20405;-42
2022/08/06 10:07:06;;;;;;;1.60;0.70;;;26.30;27.30;;;;;;5032493;28;20491;-43
2022/08/06 10:09:33;;;;;;;1.97;0.80;;;26.40;28.10;;;;;;5032493;28;20177;-43
2022/08/06 10:11:59;;;;;;;3.10;0.97;;;26.50;28.20;;;;;;5032492;28;20511;-44
2022/08/06 10:14:32;;;;;;;1.93;0.70;;;26.60;27.50;;;;;;5032540;28;20404;-43
2022/08/06 10:17:08;;;;;;;1.70;0.60;;;26.70;26.40;;;;;;5032318;28;20441;-43
2022/08/06 10:19:35;;;;;;;2.13;0.70;;;26.70;27.10;;;;;;5032518;28;20399;-44
2022/08/06 10:22:12;;;;;;;1.90;1.10;;;26.70;26.20;;;;;;5032443;28;20435;-44
2022/08/06 10:24:44;;;;;;;2.10;0.67;;;26.70;26.90;;;;;;5032336;28;20392;-42
2022/08/06 10:27:13;;;;;;;1.77;0.70;;;26.80;27.10;;;;;;5032120;28;20447;-43
2022/08/06 10:29:47;;;;;;;2.00;0.67;;;26.80;26.80;;;;;;5032459;28;20405;-42
2022/08/06 10:32:19;;;;;;;2.33;0.67;;;27.00;25.90;;;;;;5032040;28;20979;-41
2022/08/06 10:34:48;;;;;;;10.77;0.70;;;27.00;26.10;;;;;;5032227;28;20512;-43
2022/08/06 10:37:17;;;;;;;3.50;1.53;;;27.10;26.40;;;;;;5032126;28;20506;-43
2022/08/06 10:39:46;;;;;;;1.90;0.87;;;27.20;26.50;;;;;;5032273;28;20404;-43
2022/08/06 10:42:14;;;;;;;1.90;0.70;;;27.30;25.50;;;;;;5032011;28;20991;-42
2022/08/06 10:44:40;;;;;;;2.00;0.73;;;27.40;25.40;;;;;;5032142;28;20408;-43
2022/08/06 10:47:07;;;;;;;1.80;0.70;;;27.50;25.80;;;;;;5031727;28;20413;-43
2022/08/06 10:49:33;;;;;;;2.53;0.80;;;27.70;25.60;;;;;;5031676;28;20405;-43
2022/08/06 10:52:00;;;;;;;1.80;0.83;;;27.90;26.00;;;;;;5031849;28;20515;-43
2022/08/06 10:54:26;;;;;;;1.87;0.57;;;28.00;25.90;;;;;;5031971;28;20505;-43
2022/08/06 10:56:54;;;;;;;3.03;0.87;;;28.10;25.70;;;;;;5031617;28;20801;-42
2022/08/06 10:59:20;;;;;;;2.60;0.90;;;28.20;25.10;;;;;;5031745;28;20921;-43
2022/08/06 11:02:22;;;;;;;1.90;0.50;;;28.30;23.80;;;;;;5032031;28;20432;-42
2022/08/06 11:04:58;;;;;;;1.90;0.60;;;28.30;24.10;;;;;;5031944;28;20447;-43
2022/08/06 11:07:37;;;;;;;2.00;0.80;;;28.30;24.10;;;;;;5031501;28;20408;-42
2022/08/06 11:10:22;;;;;;;1.60;0.70;;;28.40;23.80;;;;;;5031986;28;20408;-43
2022/08/06 11:12:53;;;;;;;2.20;0.60;;;28.50;24.00;;;;;;5032106;28;20385;-43
2022/08/06 11:15:19;;;;;;;2.70;0.90;;;28.60;23.40;;;;;;5031859;28;20506;-43
2022/08/06 11:17:49;;;;;;;2.80;0.60;;;28.60;23.30;;;;;;5031478;28;20448;-44
2022/08/06 11:20:39;;;;;;;2.00;0.70;;;28.70;23.10;;;;;;5031494;28;20409;-43
2022/08/06 11:23:23;;;;;;;5.53;0.63;;;28.70;23.20;;;;;;5031805;28;20746;-43
2022/08/06 11:25:53;;;;;;;4.00;0.70;;;28.70;23.20;;;;;;5031666;28;20404;-42
2022/08/06 11:28:29;;;;;;;2.00;0.70;;;28.80;23.30;;;;;;5031618;28;20892;-43
2022/08/06 11:30:57;;;;;;;2.20;0.70;;;29.00;23.10;;;;;;5031491;28;20502;-43
2022/08/06 11:33:32;;;;;;;2.03;0.50;;;29.10;20.60;;;;;;5031610;28;20408;-43
2022/08/06 11:36:02;;;;;;;3.10;0.60;;;29.10;22.20;;;;;;5031357;28;20420;-42
2022/08/06 11:38:46;;;;;;;1.93;0.77;;;29.20;22.70;;;;;;5031495;28;20518;-42
2022/08/06 11:41:27;;;;;;;3.00;0.83;;;30.30;22.40;;;;;;5031250;28;20836;-43
2022/08/06 11:43:53;;;;;;;1.60;0.50;;;29.40;22.50;;;;;;5031751;28;20464;-43
2022/08/06 11:46:24;;;;;;;1.60;0.40;;;29.60;22.00;;;;;;5031184;28;20987;-43
2022/08/06 11:48:59;;;;;;;1.70;0.60;;;29.70;21.30;;;;;;5031806;28;20517;-43
2022/08/06 11:51:44;;;;;;;1.60;0.50;;;29.80;20.90;;;;;;5031374;28;20514;-43
2022/08/06 11:54:18;;;;;;;1.60;0.50;;;29.80;21.20;;;;;;5031475;28;20432;-43
2022/08/06 11:57:06;;;;;;;1.97;0.80;;;30.00;21.50;;;;;;5031237;28;20452;-42
2022/08/06 11:59:38;;;;;;;2.23;0.40;;;29.90;20.40;;;;;;5031434;28;20402;-44
2022/08/06 12:02:06;;;;;;;1.80;0.63;;;29.90;20.40;;;;;;5032827;28;20435;-44
2022/08/06 12:04:38;;;;;;;1.90;0.50;;;29.90;20.40;;;;;;5035257;28;20401;-42
2022/08/06 12:07:25;;;;;;;1.80;0.53;;;30.00;21.20;;;;;;5034733;28;21068;-44
2022/08/06 12:10:20;;;;;;;1.70;0.50;;;30.10;20.50;;;;;;5034982;28;20768;-43
2022/08/06 12:12:48;;;;;;;1.90;0.70;;;30.10;20.50;;;;;;5017979;28;20428;-42
2022/08/06 12:15:19;;;;;;;1.90;0.70;;;30.10;19.80;;;;;;5035035;28;20421;-43
2022/08/06 12:17:57;;;;;;;2.23;0.80;;;30.10;20.50;;;;;;5034415;28;20956;-43
2022/08/06 12:20:37;;;;;;;1.80;0.70;;;30.20;20.90;;;;;;5034957;28;21007;-42
2022/08/06 12:23:07;;;;;;;2.00;0.50;;;30.30;19.50;;;;;;5034542;28;20404;-42
2022/08/06 12:25:34;;;;;;;1.80;0.70;;;30.30;20.30;;;;;;5034623;28;20409;-42
2022/08/06 12:28:01;;;;;;;4.10;0.80;;;30.30;20.00;;;;;;5034748;28;20411;-43
2022/08/06 12:30:39;;;;;;;2.00;0.70;;;30.40;20.50;;;;;;5034309;28;20409;-43
2022/08/06 12:33:07;;;;;;;1.80;0.60;;;30.40;19.70;;;;;;5034446;28;20389;-42
2022/08/06 12:35:32;;;;;;;1.70;0.57;;;30.50;20.20;;;;;;5034234;28;20896;-44
2022/08/06 12:37:58;;;;;;;1.80;0.80;;;30.60;19.80;;;;;;5034197;28;20534;-43
2022/08/06 12:40:26;;;;;;;1.70;0.57;;;30.60;18.70;;;;;;5034317;28;20246;-43
2022/08/06 12:42:53;;;;;;;1.60;0.40;;;30.50;19.30;;;;;;5034543;28;20273;-41
2022/08/06 12:45:27;;;;;;;1.70;0.50;;;30.50;19.30;;;;;;5034096;28;20447;-44
2022/08/06 12:48:12;;;;;;;1.50;0.40;;;30.60;19.20;;;;;;5034012;28;20771;-44
2022/08/06 12:50:43;;;;;;;1.70;0.60;;;30.80;19.70;;;;;;5033994;28;20987;-42
2022/08/06 12:53:14;;;;;;;2.90;0.90;;;30.90;19.90;;;;;;5034425;28;20401;-41
2022/08/06 12:55:54;;;;;;;2.60;0.93;;;31.00;20.10;;;;;;5033811;28;20451;-43
2022/08/06 12:58:36;;;;;;;1.80;0.67;;;31.10;19.10;;;;;;5033818;28;20506;-43
2022/08/06 13:01:04;;;;;;;1.60;0.50;;;31.00;18.30;;;;;;5033873;28;20425;-43
2022/08/06 13:03:32;;;;;;;1.90;0.70;;;31.00;19.40;;;;;;5033976;28;20405;-42
2022/08/06 13:06:01;;;;;;;1.60;0.60;;;31.00;19.20;;;;;;5033590;28;20458;-42
2022/08/06 13:08:28;;;;;;;2.07;0.80;;;31.10;19.30;;;;;;5033870;28;20441;-41
2022/08/06 13:10:56;;;;;;;2.00;0.47;;;31.10;18.90;;;;;;5033620;28;20432;-43